Nyk Deneb — 3EOF8 — position and weather

sailwx.info

Track history (hours):
 
Tides and Currents Weather Stations Pressure Air Temp Water Temp Dewpoint Dewpoint Depression Visibility Wind Speed Wind Dir Waves Ship Positions

Nyk Deneb

Last reported at 2015-Aug-29 17:04 UTC. Time now 2015-Sep-04 12:27 UTC.
Position N 31°56' W 080°30'.

Length 294 m; draft 11.7 m.

Type: Ship (hazmat cat B). MMSI: 355717000.

Date/timePositionNaut miles runAvg speedWind from/ knotsBaromVisibWave heightAir tempDewpointWater temp
2015-Aug-29 17:04N 31°56' W 080°30'714.0
2015-Aug-29 16:33N 31°56' W 080°38'1312.5
2015-Aug-29 15:33N 32°02' W 080°51'1010.4
2015-Aug-29 14:34N 32°05' W 081°02'5 5.4
2015-Aug-29 13:34N 32°07' W 081°08'0 0.0
2015-Aug-29 12:31N 32°07' W 081°08'0 0.0
2015-Aug-29 11:31N 32°07' W 081°08'0 0.0
2015-Aug-29 10:31N 32°07' W 081°08'0 0.0
2015-Aug-29 09:31N 32°07' W 081°08'0 0.0
2015-Aug-29 08:31N 32°07' W 081°08'0 0.0
2015-Aug-29 07:31N 32°07' W 081°08'0 0.0
2015-Aug-29 06:31N 32°07' W 081°08'0 0.0
2015-Aug-29 05:31N 32°07' W 081°08'0 0.0
2015-Aug-29 04:31N 32°07' W 081°08'0 0.0
2015-Aug-29 03:31N 32°07' W 081°08'0 0.0
2015-Aug-29 02:31N 32°07' W 081°08'0 0.0
2015-Aug-29 01:31N 32°07' W 081°08'0 0.0
2015-Aug-29 00:31N 32°07' W 081°08'0 0.0
2015-Aug-28 23:28N 32°07' W 081°08'0 0.0
2015-Aug-28 22:31N 32°07' W 081°08'1 1.4
2015-Aug-28 21:33N 32°06' W 081°07'5 5.4
2015-Aug-28 20:33N 32°06' W 081°01'1211.8
2015-Aug-28 19:34N 32°01' W 080°48'1211.8
2015-Aug-28 18:33N 31°57' W 080°35'1010.0
2015-Aug-28 17:33N 31°57' W 080°23'1414.4
2015-Aug-28 16:33N 31°56' W 080°06'  
2015-Aug-26 03:22N 38°03' W 074°25'1112.0
2015-Aug-26 02:26N 38°13' W 074°19'1112.6
2015-Aug-26 01:31N 38°24' W 074°14'1212.7
2015-Aug-26 00:33N 38°35' W 074°08'1312.9
2015-Aug-25 23:33N 38°47' W 074°02'1312.7
2015-Aug-25 22:30N 38°60' W 073°57'1212.6
2015-Aug-25 21:31N 39°12' W 073°56'1212.6
2015-Aug-25 20:33N 39°25' W 073°55'1312.4
2015-Aug-25 19:33N 39°37' W 073°53'1212.3
2015-Aug-25 18:33N 39°49' W 073°53'1312.5
2015-Aug-25 17:33N 40°02' W 073°51'1212.4
2015-Aug-25 16:33N 40°14' W 073°50'1212.3
2015-Aug-25 15:33N 40°26' W 073°49'1111.4
2015-Aug-25 14:33N 40°33' W 074°02'8 7.5
2015-Aug-25 13:33N 40°39' W 074°08'3 2.6
2015-Aug-25 12:31N 40°39' W 074°11'0 0.0
2015-Aug-25 11:31N 40°39' W 074°11'0 0.0
2015-Aug-25 10:10N 40°39' W 074°11'0 0.0
2015-Aug-25 09:25N 40°39' W 074°11'0 0.0
2015-Aug-25 08:31N 40°39' W 074°11'0 0.0
2015-Aug-25 07:31N 40°39' W 074°11'0 0.0
2015-Aug-25 06:28N 40°39' W 074°11'0 0.0
2015-Aug-25 05:31N 40°39' W 074°11'0 0.0
2015-Aug-25 04:31N 40°39' W 074°11'0 0.0
2015-Aug-25 03:31N 40°39' W 074°11'0 0.0
2015-Aug-25 02:28N 40°39' W 074°11'0 0.0
2015-Aug-25 01:31N 40°39' W 074°11'0 0.0
2015-Aug-25 00:31N 40°39' W 074°11'0 0.0
2015-Aug-24 23:22N 40°39' W 074°11'0 0.0
2015-Aug-24 22:25N 40°39' W 074°11'0 0.0
2015-Aug-24 21:25N 40°39' W 074°11'0 0.0
2015-Aug-24 20:25N 40°39' W 074°11'0 0.0
2015-Aug-24 19:28N 40°39' W 074°11'0 0.0
2015-Aug-24 18:31N 40°39' W 074°11'0 0.0
2015-Aug-24 15:33N 40°39' W 074°11'5 4.5
2015-Aug-24 14:33N 40°39' W 074°05'7 6.6
2015-Aug-24 13:33N 40°33' W 074°02'1212.3
2015-Aug-24 12:33N 40°27' W 073°48'9 8.6
2015-Aug-24 11:33N 40°18' W 073°46'1010.1
2015-Aug-24 10:33N 40°08' W 073°44'1212.1
2015-Aug-24 09:33N 39°56' W 073°42'1212.2
2015-Aug-24 08:33N 39°44' W 073°41'1212.1
2015-Aug-24 07:33N 39°32' W 073°41'1212.0
2015-Aug-24 06:33N 39°20' W 073°40'1212.3
2015-Aug-24 05:32N 39°07' W 073°40'1212.3
2015-Aug-24 04:33N 38°55' W 073°39'1212.3
2015-Aug-24 03:33N 38°43' W 073°37'1212.3
2015-Aug-24 02:33N 38°31' W 073°39'1212.4
2015-Aug-24 01:33N 38°19' W 073°39'5 4.6
2015-Aug-24 00:33N 38°14' W 073°39'1414.5
2015-Aug-23 23:33N 37°60' W 073°39'1515.0
2015-Aug-23 22:33N 37°45' W 073°39'  
Track history (hours):
 
Tides and Currents Weather Stations Pressure Air Temp Water Temp Dewpoint Dewpoint Depression Visibility Wind Speed Wind Dir Waves Ship Positions

Nyk Deneb

Last reported at 2015-Aug-29 17:04 UTC. Time now 2015-Sep-04 12:27 UTC.
Position N 31°56' W 080°30'.

Length 294 m; draft 11.7 m.

Type: Ship (hazmat cat B). MMSI: 355717000.

Date/timePositionNaut miles runAvg speedWind from/ knotsBaromVisibWave heightAir tempDewpointWater temp
2015-Aug-29 17:04N 31°56' W 080°30'714.0
2015-Aug-29 16:33N 31°56' W 080°38'1312.5
2015-Aug-29 15:33N 32°02' W 080°51'1010.4
2015-Aug-29 14:34N 32°05' W 081°02'5 5.4
2015-Aug-29 13:34N 32°07' W 081°08'0 0.0
2015-Aug-29 12:31N 32°07' W 081°08'0 0.0
2015-Aug-29 11:31N 32°07' W 081°08'0 0.0
2015-Aug-29 10:31N 32°07' W 081°08'0 0.0
2015-Aug-29 09:31N 32°07' W 081°08'0 0.0
2015-Aug-29 08:31N 32°07' W 081°08'0 0.0
2015-Aug-29 07:31N 32°07' W 081°08'0 0.0
2015-Aug-29 06:31N 32°07' W 081°08'0 0.0
2015-Aug-29 05:31N 32°07' W 081°08'0 0.0
2015-Aug-29 04:31N 32°07' W 081°08'0 0.0
2015-Aug-29 03:31N 32°07' W 081°08'0 0.0
2015-Aug-29 02:31N 32°07' W 081°08'0 0.0
2015-Aug-29 01:31N 32°07' W 081°08'0 0.0
2015-Aug-29 00:31N 32°07' W 081°08'0 0.0
2015-Aug-28 23:28N 32°07' W 081°08'0 0.0
2015-Aug-28 22:31N 32°07' W 081°08'1 1.4
2015-Aug-28 21:33N 32°06' W 081°07'5 5.4
2015-Aug-28 20:33N 32°06' W 081°01'1211.8
2015-Aug-28 19:34N 32°01' W 080°48'1211.8
2015-Aug-28 18:33N 31°57' W 080°35'1010.0
2015-Aug-28 17:33N 31°57' W 080°23'1414.4
2015-Aug-28 16:33N 31°56' W 080°06'  
2015-Aug-26 03:22N 38°03' W 074°25'1112.0
2015-Aug-26 02:26N 38°13' W 074°19'1112.6
2015-Aug-26 01:31N 38°24' W 074°14'1212.7
2015-Aug-26 00:33N 38°35' W 074°08'1312.9
2015-Aug-25 23:33N 38°47' W 074°02'1312.7
2015-Aug-25 22:30N 38°60' W 073°57'1212.6
2015-Aug-25 21:31N 39°12' W 073°56'1212.6
2015-Aug-25 20:33N 39°25' W 073°55'1312.4
2015-Aug-25 19:33N 39°37' W 073°53'1212.3
2015-Aug-25 18:33N 39°49' W 073°53'1312.5
2015-Aug-25 17:33N 40°02' W 073°51'1212.4
2015-Aug-25 16:33N 40°14' W 073°50'1212.3
2015-Aug-25 15:33N 40°26' W 073°49'1111.4
2015-Aug-25 14:33N 40°33' W 074°02'8 7.5
2015-Aug-25 13:33N 40°39' W 074°08'3 2.6
2015-Aug-25 12:31N 40°39' W 074°11'0 0.0
2015-Aug-25 11:31N 40°39' W 074°11'0 0.0
2015-Aug-25 10:10N 40°39' W 074°11'0 0.0
2015-Aug-25 09:25N 40°39' W 074°11'0 0.0
2015-Aug-25 08:31N 40°39' W 074°11'0 0.0
2015-Aug-25 07:31N 40°39' W 074°11'0 0.0
2015-Aug-25 06:28N 40°39' W 074°11'0 0.0
2015-Aug-25 05:31N 40°39' W 074°11'0 0.0
2015-Aug-25 04:31N 40°39' W 074°11'0 0.0
2015-Aug-25 03:31N 40°39' W 074°11'0 0.0
2015-Aug-25 02:28N 40°39' W 074°11'0 0.0
2015-Aug-25 01:31N 40°39' W 074°11'0 0.0
2015-Aug-25 00:31N 40°39' W 074°11'0 0.0
2015-Aug-24 23:22N 40°39' W 074°11'0 0.0
2015-Aug-24 22:25N 40°39' W 074°11'0 0.0
2015-Aug-24 21:25N 40°39' W 074°11'0 0.0
2015-Aug-24 20:25N 40°39' W 074°11'0 0.0
2015-Aug-24 19:28N 40°39' W 074°11'0 0.0
2015-Aug-24 18:31N 40°39' W 074°11'0 0.0
2015-Aug-24 15:33N 40°39' W 074°11'5 4.5
2015-Aug-24 14:33N 40°39' W 074°05'7 6.6
2015-Aug-24 13:33N 40°33' W 074°02'1212.3
2015-Aug-24 12:33N 40°27' W 073°48'9 8.6
2015-Aug-24 11:33N 40°18' W 073°46'1010.1
2015-Aug-24 10:33N 40°08' W 073°44'1212.1
2015-Aug-24 09:33N 39°56' W 073°42'1212.2
2015-Aug-24 08:33N 39°44' W 073°41'1212.1
2015-Aug-24 07:33N 39°32' W 073°41'1212.0
2015-Aug-24 06:33N 39°20' W 073°40'1212.3
2015-Aug-24 05:32N 39°07' W 073°40'1212.3
2015-Aug-24 04:33N 38°55' W 073°39'1212.3
2015-Aug-24 03:33N 38°43' W 073°37'1212.3
2015-Aug-24 02:33N 38°31' W 073°39'1212.4
2015-Aug-24 01:33N 38°19' W 073°39'5 4.6
2015-Aug-24 00:33N 38°14' W 073°39'1414.5
2015-Aug-23 23:33N 37°60' W 073°39'1515.0
2015-Aug-23 22:33N 37°45' W 073°39'  

Dump ship's entire track history